createdAt,value
2022-10-23T00:04:59.194Z,15.43
2022-10-23T00:10:06.190Z,14.18
2022-10-23T00:15:16.265Z,13.30
2022-10-23T00:20:19.919Z,14.63
2022-10-23T00:25:23.877Z,12.93
2022-10-23T00:30:27.523Z,15.43
2022-10-23T00:35:32.297Z,12.43
2022-10-23T00:40:37.683Z,13.05
2022-10-23T00:45:40.932Z,11.98
2022-10-23T00:50:46.720Z,13.57
2022-10-23T00:55:53.310Z,13.60
2022-10-23T01:00:57.372Z,12.88
2022-10-23T01:06:05.129Z,13.38
2022-10-23T01:11:15.192Z,14.98
2022-10-23T01:16:31.959Z,14.82
2022-10-23T01:21:54.875Z,15.27
2022-10-23T01:27:12.543Z,14.18
2022-10-23T01:32:27.637Z,13.40
2022-10-23T01:37:45.975Z,12.65
2022-10-23T01:42:55.163Z,12.07
2022-10-23T01:48:04.728Z,12.30
2022-10-23T01:53:09.278Z,12.10
2022-10-23T01:58:15.322Z,10.98
2022-10-23T02:03:20.679Z,11.38
2022-10-23T02:08:24.682Z,12.07
2022-10-23T02:13:39.719Z,10.45
2022-10-23T02:19:00.822Z,10.75
2022-10-23T02:24:11.635Z,10.48
2022-10-23T02:29:59.687Z,10.70
2022-10-23T02:35:04.375Z,10.53
2022-10-23T02:40:10.012Z,10.00
2022-10-23T02:46:05.315Z,10.23
2022-10-23T02:51:48.919Z,10.30
2022-10-23T02:57:26.728Z,9.95
2022-10-23T03:02:41.758Z,9.95
2022-10-23T03:07:47.320Z,10.20
2022-10-23T03:12:53.577Z,10.82
2022-10-23T03:17:57.505Z,10.15
2022-10-23T03:23:00.904Z,10.70
2022-10-23T03:28:04.458Z,10.93
2022-10-23T03:33:11.595Z,10.25
2022-10-23T03:38:15.719Z,11.00
2022-10-23T03:43:19.465Z,10.32
2022-10-23T03:48:23.118Z,11.05
2022-10-23T03:53:26.371Z,10.70
2022-10-23T03:58:29.858Z,11.80
2022-10-23T04:03:33.391Z,12.68
2022-10-23T04:08:37.468Z,11.38
2022-10-23T04:13:47.398Z,11.38
2022-10-23T04:18:53.017Z,11.02
2022-10-23T04:23:59.890Z,11.25
2022-10-23T04:29:03.412Z,12.45
2022-10-23T04:39:15.531Z,12.80
2022-10-23T04:44:18.931Z,12.30
2022-10-23T04:49:22.737Z,12.40
2022-10-23T04:54:47.595Z,12.27
2022-10-23T05:00:06.013Z,13.57
2022-10-23T05:05:17.819Z,11.85
2022-10-23T05:10:28.046Z,13.10
2022-10-23T05:15:38.079Z,14.07
2022-10-23T05:20:42.460Z,14.45
2022-10-23T05:25:47.235Z,12.18
2022-10-23T05:31:01.247Z,12.80
2022-10-23T05:36:06.144Z,11.40
2022-10-23T05:41:10.474Z,12.40
2022-10-23T05:46:16.690Z,10.80
2022-10-23T05:51:42.209Z,10.73
2022-10-23T05:56:57.699Z,10.20
2022-10-23T06:02:22.851Z,9.63
2022-10-23T06:07:36.328Z,9.57
2022-10-23T06:12:42.430Z,9.70
2022-10-23T06:17:50.223Z,9.82
2022-10-23T06:22:54.083Z,9.57
2022-10-23T06:28:18.311Z,8.25
2022-10-23T06:33:24.800Z,8.48
2022-10-23T06:38:28.898Z,10.02
2022-10-23T06:43:34.357Z,9.90
2022-10-23T06:49:00.539Z,9.55
2022-10-23T06:54:08.928Z,10.45
2022-10-23T06:59:27.399Z,9.65
2022-10-23T07:04:32.092Z,11.82
2022-10-23T07:09:37.411Z,10.90
2022-10-23T07:14:49.481Z,11.02
2022-10-23T07:19:53.518Z,10.30
2022-10-23T07:24:57.101Z,9.23
2022-10-23T07:30:11.765Z,9.73
2022-10-23T07:35:21.858Z,11.23
2022-10-23T07:40:39.440Z,10.07
2022-10-23T07:45:48.486Z,8.88
2022-10-23T07:51:03.690Z,10.05
2022-10-23T07:56:22.564Z,9.13
2022-10-23T08:01:55.704Z,10.52
2022-10-23T08:07:04.425Z,8.73
2022-10-23T08:12:14.246Z,10.82
2022-10-23T08:17:17.930Z,10.40
2022-10-23T08:22:51.751Z,9.75
2022-10-23T08:28:03.098Z,10.02
2022-10-23T08:33:15.492Z,9.90
2022-10-23T08:38:20.506Z,11.02
2022-10-23T08:43:42.519Z,12.13
2022-10-23T08:49:26.958Z,9.63
2022-10-23T08:54:45.339Z,10.07
2022-10-23T09:00:00.435Z,8.95
2022-10-23T09:05:09.789Z,9.85
2022-10-23T09:10:37.853Z,10.57
2022-10-23T09:15:47.759Z,9.20
2022-10-23T09:20:55.048Z,10.18
2022-10-23T09:26:02.605Z,9.95
2022-10-23T09:31:10.491Z,9.50
2022-10-23T09:36:13.921Z,8.65
2022-10-23T09:41:30.918Z,9.77
2022-10-23T09:47:08.017Z,9.80
2022-10-23T09:52:11.264Z,10.32
2022-10-23T09:57:27.629Z,10.23
2022-10-23T10:02:33.962Z,9.52
2022-10-23T10:07:59.564Z,8.70
2022-10-23T10:13:28.890Z,9.00
2022-10-23T10:18:57.044Z,10.13
2022-10-23T10:24:05.617Z,9.00
2022-10-23T10:29:30.645Z,9.82
2022-10-23T10:34:59.139Z,10.32
2022-10-23T10:40:26.902Z,9.77
2022-10-23T10:45:52.787Z,11.07
2022-10-23T10:51:08.529Z,9.90
2022-10-23T10:56:28.221Z,10.10
2022-10-23T11:01:47.112Z,9.35
2022-10-23T11:06:54.474Z,10.27
2022-10-23T11:11:58.487Z,9.48
2022-10-23T11:17:11.449Z,9.57
2022-10-23T11:22:31.049Z,10.48
2022-10-23T11:27:44.234Z,9.38
2022-10-23T11:33:07.570Z,10.75
2022-10-23T11:38:25.019Z,8.82
2022-10-23T11:43:31.275Z,9.05
2022-10-23T11:48:38.739Z,8.73
2022-10-23T11:53:43.289Z,9.32
2022-10-23T11:58:51.110Z,8.10
2022-10-23T12:04:04.373Z,9.32
2022-10-23T12:09:42.419Z,8.43
2022-10-23T12:14:51.150Z,9.13
2022-10-23T12:20:01.794Z,8.75
2022-10-23T12:25:15.915Z,6.93
2022-10-23T12:30:36.805Z,8.90
2022-10-23T12:36:06.499Z,9.57
2022-10-23T12:41:17.168Z,8.30
2022-10-23T12:46:42.473Z,7.60
2022-10-23T12:51:59.496Z,9.15
2022-10-23T12:57:02.903Z,10.07
2022-10-23T13:02:23.410Z,8.38
2022-10-23T13:07:30.053Z,9.17
2022-10-23T13:12:38.914Z,11.20
2022-10-23T13:17:48.815Z,7.82
2022-10-23T13:23:19.106Z,7.75
2022-10-23T13:28:29.055Z,6.72
2022-10-23T13:33:39.747Z,7.55
2022-10-23T13:39:00.398Z,5.43
2022-10-23T13:44:03.712Z,5.93
2022-10-23T13:49:07.345Z,5.50
2022-10-23T13:54:15.675Z,4.75
2022-10-23T13:59:30.195Z,5.68
2022-10-23T14:04:34.403Z,5.43
2022-10-23T14:09:37.882Z,6.22
2022-10-23T14:14:42.741Z,4.80
2022-10-23T14:19:46.299Z,5.20
2022-10-23T14:24:50.886Z,4.60
2022-10-23T14:29:54.123Z,5.85
2022-10-23T14:34:57.363Z,4.55
2022-10-23T14:40:01.246Z,4.80
2022-10-23T14:45:07.338Z,4.18
2022-10-23T14:50:12.109Z,3.67
2022-10-23T14:55:15.335Z,2.90
2022-10-23T15:00:19.571Z,2.90
2022-10-23T15:05:23.075Z,2.42
2022-10-23T15:10:27.109Z,2.50
2022-10-23T15:15:32.382Z,3.95
2022-10-23T15:20:36.315Z,3.40
2022-10-23T15:25:39.507Z,3.45
2022-10-23T15:30:43.757Z,2.95
2022-10-23T15:35:49.706Z,2.45
2022-10-23T15:41:00.236Z,2.47
2022-10-23T15:46:06.471Z,2.70
2022-10-23T15:51:10.364Z,3.13
2022-10-23T15:56:13.725Z,2.53
2022-10-23T16:01:16.887Z,2.33
2022-10-23T16:06:21.285Z,2.95
2022-10-23T16:11:36.460Z,2.70
2022-10-23T16:16:39.769Z,2.35
2022-10-23T16:21:43.127Z,2.33
2022-10-23T16:26:46.701Z,2.70
2022-10-23T16:31:50.422Z,2.67
2022-10-23T16:36:53.857Z,3.47
2022-10-23T16:42:10.903Z,2.90
2022-10-23T16:47:44.626Z,3.20
2022-10-23T16:52:49.912Z,3.53
2022-10-23T16:57:55.555Z,3.10
2022-10-23T17:02:58.706Z,2.53
2022-10-23T17:08:02.281Z,2.75
2022-10-23T17:13:05.732Z,2.65
2022-10-23T17:18:09.207Z,2.75
2022-10-23T17:23:12.994Z,2.95
2022-10-23T17:28:16.460Z,2.85
2022-10-23T17:33:20.163Z,3.13
2022-10-23T17:38:24.827Z,3.25
2022-10-23T17:43:28.508Z,4.18
2022-10-23T17:48:32.011Z,4.40
2022-10-23T17:53:37.960Z,3.95
2022-10-23T17:58:41.838Z,4.35
2022-10-23T18:03:45.530Z,4.20
2022-10-23T18:08:49.909Z,5.68
2022-10-23T18:13:54.635Z,5.10
2022-10-23T18:19:01.054Z,5.25
2022-10-23T18:24:04.857Z,6.32
2022-10-23T18:29:09.693Z,5.57
2022-10-23T18:34:24.130Z,6.97
2022-10-23T18:39:27.893Z,4.82
2022-10-23T18:44:31.270Z,5.20
2022-10-23T18:49:35.271Z,5.15
2022-10-23T18:54:38.584Z,5.25
2022-10-23T18:59:41.864Z,5.90
2022-10-23T19:04:45.194Z,6.03
2022-10-23T19:09:48.959Z,6.03
2022-10-23T19:14:53.128Z,5.72
2022-10-23T19:20:03.733Z,6.30
2022-10-23T19:25:31.275Z,5.57
2022-10-23T19:30:35.291Z,6.18
2022-10-23T19:35:38.517Z,5.78
2022-10-23T19:40:41.961Z,7.25
2022-10-23T19:45:45.416Z,6.30
2022-10-23T19:50:48.620Z,6.03
2022-10-23T19:55:53.108Z,6.97
2022-10-23T20:00:57.022Z,6.35
2022-10-23T20:06:00.911Z,5.65
2022-10-23T20:11:04.432Z,7.20
2022-10-23T20:16:10.453Z,5.72
2022-10-23T20:21:22.868Z,5.85
2022-10-23T20:26:26.514Z,8.60
2022-10-23T20:31:29.970Z,6.72
2022-10-23T20:36:36.465Z,7.55
2022-10-23T20:41:42.642Z,7.55
2022-10-23T20:46:50.374Z,7.32
2022-10-23T20:51:56.074Z,7.68
2022-10-23T20:56:59.404Z,7.40
2022-10-23T21:02:02.667Z,7.75
2022-10-23T21:07:10.827Z,8.55
2022-10-23T21:12:16.237Z,8.77
2022-10-23T21:17:22.601Z,7.72
2022-10-23T21:22:26.090Z,7.93
2022-10-23T21:27:29.723Z,7.55
2022-10-23T21:32:33.660Z,7.88
2022-10-23T21:37:37.180Z,7.90
2022-10-23T21:42:40.751Z,7.70
2022-10-23T21:47:44.490Z,7.78
2022-10-23T21:52:53.065Z,7.65
2022-10-23T21:57:57.360Z,6.57
2022-10-23T22:03:00.825Z,7.43
2022-10-23T22:08:04.407Z,7.30
2022-10-23T22:13:07.639Z,6.78
2022-10-23T22:18:10.918Z,4.97
2022-10-23T22:23:14.315Z,5.63
2022-10-23T22:28:17.899Z,5.25
2022-10-23T22:33:22.739Z,5.82
2022-10-23T22:38:31.764Z,6.40
2022-10-23T22:43:35.217Z,5.78
2022-10-23T22:48:40.273Z,6.20
2022-10-23T22:53:44.624Z,4.47
2022-10-23T22:58:48.477Z,4.60
2022-10-23T23:03:52.180Z,4.40
2022-10-23T23:08:56.687Z,4.82
2022-10-23T23:14:01.378Z,5.10
2022-10-23T23:19:05.043Z,4.55
2022-10-23T23:24:10.333Z,5.97
2022-10-23T23:29:14.505Z,4.88
2022-10-23T23:34:18.166Z,5.15
2022-10-23T23:39:21.819Z,5.78
2022-10-23T23:44:26.217Z,5.47
2022-10-23T23:49:29.770Z,5.43
2022-10-23T23:54:33.298Z,5.45
2022-10-23T23:59:41.894Z,6.07
